King Cove AP, King Cove, AK, AK

7:38 PM AKDT on April 19, 2018 (GMT -0800)
King Cove AP, King Cove, AK

Weather History for PAVC - December, 2013

Change the Weather History Date:

Friday, December 20, 2013

  Actual Average (PACD) Record (PACD)
Temperature  
Mean Temperature 42 °F -  
Max Temperature 44 °F 36 °F 46 °F (2013)
Min Temperature 41 °F 27 °F 5 °F (2006)
Degree Days  
Heating Degree Days 22    
Moisture  
Dew Point 40 °F    
Average Humidity 92    
Maximum Humidity 100    
Minimum Humidity 80    
Precipitation  
Precipitation 0.26 in - - ()
Sea Level Pressure  
Sea Level Pressure 29.39 in    
Wind  
Wind Speed 12 mph (WSW)    
Max Wind Speed 28 mph    
Max Gust Speed 38 mph    
Visibility 4 miles    
Events Fog , Rain    
Averages and records for this station are not official NWS values.
T = Trace of Precipitation, MM = Missing Value Source: NWS Daily Summary

Daily Weather History Graph

Daily Weather History Graph

Search for Another Location

Airport or City:

Astronomy

Dec. 20, 2013 Rise Set
Actual Time 10:12 AM AKST 5:21 PM AKST
Civil Twilight 9:26 AM AKST 6:07 PM AKST
Nautical Twilight 8:39 AM AKST 6:54 PM AKST
Astronomical Twilight 7:54 AM AKST 7:39 PM AKST
Moon 9:26 PM AKST 11:42 AM AKST
Length of Visible Light 8h 40m
Length of Day
7h 08m
Waning Gibbous, 89% of the Moon is Illuminated
Dec 20
Waning Gibbous
Dec 25
Last Quarter
Jan 1
New
Jan 7
First Quarter
Jan 15
Full

Hourly Weather History & Observations

Time (AKST) Temp. Windchill Dew Point Humidity Pressure Visibility Wind Dir Wind Speed Gust Speed Precip Events Conditions
12:07 AM 42.8 °F 37.0 °F 42.8 °F 100% 29.33 in 1.0 mi NE 10.4 mph - 0.00 in Rain Light Rain
12:37 AM 42.8 °F 37.0 °F 42.8 °F 100% 29.33 in 1.5 mi NE 10.4 mph - 0.00 in Rain Light Rain
12:56 AM 43.0 °F 36.8 °F 41.9 °F 96% 29.33 in 1.5 mi ENE 11.5 mph - 0.02 in   Overcast
1:19 AM 42.8 °F 37.0 °F 42.8 °F 100% 29.32 in 1.0 mi ENE 10.4 mph - 0.01 in   Overcast
1:35 AM 42.8 °F 37.5 °F 42.8 °F 100% 29.32 in 0.8 mi ENE 9.2 mph - 0.05 in Rain Light Rain
1:40 AM 42.8 °F 38.0 °F 42.8 °F 100% 29.32 in 1.2 mi ENE 8.1 mph - 0.06 in Rain Light Rain
1:56 AM 43.0 °F 38.2 °F 41.9 °F 96% 29.32 in 1.0 mi ENE 8.1 mph - 0.09 in Rain Light Rain
2:10 AM 42.8 °F 40.1 °F 42.8 °F 100% 29.31 in 0.8 mi ENE 4.6 mph - 0.02 in Rain Light Rain
2:20 AM 42.8 °F 38.6 °F 42.8 °F 100% 29.31 in 1.2 mi NE 6.9 mph - 0.03 in Rain Light Rain
2:27 AM 42.8 °F - 42.8 °F 100% 29.32 in 2.0 mi Calm Calm - 0.03 in Rain Light Rain
2:40 AM 42.8 °F 38.6 °F 42.8 °F 100% 29.31 in 1.8 mi NE 6.9 mph - 0.05 in Rain Light Rain
2:56 AM 42.8 °F 38.0 °F 42.8 °F 100% 29.29 in 2.5 mi East 8.1 mph - N/A Rain Light Rain
3:16 AM 42.8 °F - 42.8 °F 100% 29.30 in 1.2 mi Calm Calm - 0.01 in Rain Light Rain
3:36 AM 42.8 °F - 42.8 °F 100% 29.29 in 1.5 mi Calm Calm - 0.05 in   Overcast
3:42 AM 42.8 °F - 42.8 °F 100% 29.29 in 2.0 mi Calm Calm - 0.05 in   Overcast
3:56 AM 41.9 °F - 41.9 °F 100% 29.30 in 1.2 mi Calm Calm - 0.06 in Rain Light Rain
4:41 AM 44.6 °F 37.8 °F 42.8 °F 93% 29.31 in 1.5 mi SW 15.0 mph - 0.04 in   Overcast
4:56 AM 43.9 °F 36.5 °F 43.0 °F 97% 29.31 in 1.0 mi SW 16.1 mph 21.9 mph 0.04 in   Overcast
5:17 AM 44.6 °F 37.8 °F 42.8 °F 93% 29.31 in 0.5 mi SW 15.0 mph - N/A Fog Fog
5:56 AM 42.8 °F 34.8 °F 42.8 °F 100% 29.33 in 0.8 mi SW 17.3 mph 26.5 mph N/A Rain Light Rain
6:25 AM 42.8 °F 35.8 °F 42.8 °F 100% 29.35 in 1.2 mi West 13.8 mph 27.6 mph 0.02 in   Overcast
6:41 AM 42.8 °F 34.5 °F 42.8 °F 100% 29.35 in 2.0 mi WSW 18.4 mph 31.1 mph 0.03 in   Overcast
6:56 AM 43.0 °F 34.2 °F 41.9 °F 96% 29.37 in 4.0 mi SW 20.7 mph 26.5 mph 0.03 in   Overcast
7:16 AM 42.8 °F 33.3 °F 41.0 °F 93% 29.37 in 2.5 mi WSW 24.2 mph 34.5 mph N/A   Overcast
7:21 AM 42.8 °F 33.3 °F 41.0 °F 93% 29.37 in 1.2 mi WSW 24.2 mph 32.2 mph N/A   Overcast
7:56 AM 41.9 °F 31.5 °F 39.9 °F 93% 29.41 in 1.2 mi WSW 27.6 mph 34.5 mph 0.01 in   Overcast
8:21 AM 41.0 °F 31.6 °F 39.2 °F 93% 29.40 in 2.0 mi WSW 20.7 mph 34.5 mph N/A   Overcast
8:35 AM 41.0 °F 30.9 °F 37.4 °F 87% 29.41 in 3.0 mi WSW 24.2 mph 38.0 mph N/A   Overcast
8:56 AM 41.0 °F 31.4 °F 37.4 °F 87% 29.40 in 4.0 mi WSW 21.9 mph 35.7 mph N/A   Overcast
9:39 AM 42.8 °F 35.1 °F 39.2 °F 87% 29.41 in 2.5 mi West 16.1 mph 32.2 mph N/A   Overcast
9:56 AM 41.9 °F 32.1 °F 38.8 °F 89% 29.41 in 10.0 mi West 24.2 mph 35.7 mph N/A   Overcast
10:43 AM 42.8 °F 36.2 °F 39.2 °F 87% 29.42 in 4.0 mi West 12.7 mph 32.2 mph N/A   Overcast
10:56 AM 41.9 °F 34.6 °F 39.9 °F 93% 29.43 in 5.0 mi West 13.8 mph 19.6 mph N/A   Overcast
11:21 AM 42.8 °F 35.1 °F 39.2 °F 87% 29.42 in 10.0 mi West 16.1 mph 28.8 mph N/A   Overcast
11:42 AM 42.8 °F 35.4 °F 37.4 °F 81% 29.43 in 10.0 mi West 15.0 mph 24.2 mph N/A   Overcast
11:56 AM 42.8 °F 36.6 °F 39.2 °F 87% 29.44 in 10.0 mi West 11.5 mph 23.0 mph N/A   Overcast
12:56 PM 43.0 °F 35.7 °F 38.8 °F 85% 29.43 in 9.0 mi West 15.0 mph 21.9 mph 0.00 in   Overcast
1:56 PM 43.9 °F 37.9 °F 37.9 °F 80% 29.44 in 9.0 mi West 11.5 mph 29.9 mph N/A   Overcast
2:56 PM 42.8 °F 35.1 °F 37.4 °F 81% 29.43 in 3.0 mi SW 16.1 mph 31.1 mph N/A Rain Light Rain
3:08 PM 42.8 °F 34.3 °F 37.4 °F 81% 29.42 in 1.8 mi West 19.6 mph 28.8 mph 0.00 in Rain Light Rain
3:12 PM 42.8 °F 33.3 °F 39.2 °F 87% 29.44 in 1.0 mi WSW 24.2 mph 32.2 mph 0.00 in Rain Light Rain
3:19 PM 42.8 °F 34.8 °F 39.2 °F 87% 29.43 in 1.5 mi WSW 17.3 mph 32.2 mph 0.00 in   Mostly Cloudy
3:22 PM 42.8 °F 34.3 °F 37.4 °F 81% 29.43 in 3.0 mi WSW 19.6 mph 28.8 mph 0.00 in   Mostly Cloudy
3:30 PM 42.8 °F 35.4 °F 39.2 °F 87% 29.43 in 1.8 mi WSW 15.0 mph 24.2 mph 0.00 in   Overcast
3:56 PM 41.0 °F 33.1 °F 38.8 °F 92% 29.43 in 5.0 mi WSW 15.0 mph 26.5 mph 0.00 in   Overcast
4:16 PM 41.0 °F 33.5 °F 37.4 °F 87% 29.42 in 10.0 mi WSW 13.8 mph 24.2 mph N/A   Mostly Cloudy
4:29 PM 41.0 °F 33.5 °F 39.2 °F 93% 29.42 in 6.0 mi WSW 13.8 mph 32.2 mph N/A   Overcast
4:56 PM 41.9 °F 34.3 °F 37.9 °F 86% 29.43 in 10.0 mi WSW 15.0 mph 25.3 mph N/A   Overcast
5:15 PM 41.0 °F 34.3 °F 39.2 °F 93% 29.43 in 2.5 mi WSW 11.5 mph 26.5 mph 0.00 in Rain Light Rain
5:25 PM 41.0 °F 32.5 °F 39.2 °F 93% 29.43 in 1.2 mi West 17.3 mph 26.5 mph 0.00 in Rain Light Rain
5:27 PM 41.0 °F 34.7 °F 39.2 °F 93% 29.44 in 1.0 mi WSW 10.4 mph 26.5 mph 0.00 in Rain Light Rain
5:38 PM 41.0 °F 33.1 °F 39.2 °F 93% 29.43 in 1.5 mi WNW 15.0 mph 24.2 mph 0.00 in   Overcast
5:42 PM 41.0 °F 34.3 °F 39.2 °F 93% 29.45 in 3.0 mi SW 11.5 mph 24.2 mph 0.00 in   Overcast
5:56 PM 41.0 °F 32.5 °F 39.2 °F 93% 29.44 in 4.0 mi West 17.3 mph 26.5 mph N/A   Mostly Cloudy
6:30 PM 41.0 °F 33.9 °F 37.4 °F 87% 29.44 in 1.8 mi West 12.7 mph 23.0 mph N/A   Mostly Cloudy
6:34 PM 41.0 °F 34.7 °F 37.4 °F 87% 29.45 in 2.0 mi SSW 10.4 mph 23.0 mph N/A   Overcast
6:56 PM 41.9 °F 37.5 °F 37.9 °F 86% 29.45 in 10.0 mi Variable 6.9 mph - N/A   Overcast
7:17 PM 41.0 °F 33.9 °F 39.2 °F 93% 29.45 in 1.8 mi WSW 12.7 mph - 0.00 in   Overcast
7:35 PM 41.0 °F 35.8 °F 39.2 °F 93% 29.44 in 3.0 mi WSW 8.1 mph 19.6 mph 0.00 in   Overcast
7:44 PM 41.0 °F 34.7 °F 39.2 °F 93% 29.44 in 2.0 mi SW 10.4 mph - 0.00 in   Overcast
7:56 PM 41.0 °F 32.8 °F 38.8 °F 92% 29.45 in 1.5 mi WSW 16.1 mph 20.7 mph 0.01 in Rain Light Rain
8:03 PM 41.0 °F 33.5 °F 39.2 °F 93% 29.44 in 2.5 mi WSW 13.8 mph 21.9 mph 0.00 in   Overcast
8:06 PM 41.0 °F 34.3 °F 37.4 °F 87% 29.44 in 5.0 mi WSW 11.5 mph - 0.00 in   Overcast
8:56 PM 41.0 °F 39.0 °F 37.4 °F 87% 29.45 in 9.0 mi Variable 3.5 mph - N/A   Overcast
9:19 PM 41.0 °F 33.9 °F 37.4 °F 87% 29.45 in 10.0 mi West 12.7 mph 18.4 mph N/A   Overcast
9:56 PM 41.9 °F 36.9 °F 37.9 °F 86% 29.45 in 10.0 mi West 8.1 mph - N/A   Overcast
10:56 PM 41.0 °F 33.9 °F 37.9 °F 89% 29.45 in 9.0 mi SSW 12.7 mph 19.6 mph 0.00 in   Overcast
11:56 PM 41.0 °F 36.4 °F 37.4 °F 87% 29.45 in 8.0 mi WSW 6.9 mph - N/A   Overcast